sensor_id;sensor_type;location;lat;lon;timestamp;pressure;altitude;pressure_sealevel;temperature;humidity
63190;BME280;49286;44.460;26.114;2022-09-14T00:01:56;100225.47;;;14.60;65.45
63190;BME280;49286;44.460;26.114;2022-09-14T00:04:22;100183.69;;;14.33;66.11
63190;BME280;49286;44.460;26.114;2022-09-14T00:06:47;100353.25;;;14.99;67.14
63190;BME280;49286;44.460;26.114;2022-09-14T00:09:15;100221.59;;;14.29;67.81
63190;BME280;49286;44.460;26.114;2022-09-14T00:11:41;100277.00;;;14.31;67.55
63190;BME280;49286;44.460;26.114;2022-09-14T00:14:07;100241.09;;;14.21;67.52
63190;BME280;49286;44.460;26.114;2022-09-14T00:16:39;100361.03;;;15.07;66.28
63190;BME280;49286;44.460;26.114;2022-09-14T00:19:17;100351.75;;;14.84;67.15
63190;BME280;49286;44.460;26.114;2022-09-14T00:21:43;100371.00;;;14.92;67.62
63190;BME280;49286;44.460;26.114;2022-09-14T00:24:10;100200.44;;;13.81;67.87
63190;BME280;49286;44.460;26.114;2022-09-14T00:26:36;100226.47;;;14.03;67.39
63190;BME280;49286;44.460;26.114;2022-09-14T00:29:03;100323.63;;;14.83;66.58
63190;BME280;49286;44.460;26.114;2022-09-14T00:31:30;100375.97;;;15.09;66.87
63190;BME280;49286;44.460;26.114;2022-09-14T00:33:55;100375.09;;;15.07;66.74
63190;BME280;49286;44.460;26.114;2022-09-14T00:36:23;100237.56;;;14.22;67.86
63190;BME280;49286;44.460;26.114;2022-09-14T00:38:50;100255.84;;;14.32;67.75
63190;BME280;49286;44.460;26.114;2022-09-14T00:41:19;100257.22;;;14.05;68.93
63190;BME280;49286;44.460;26.114;2022-09-14T00:46:37;100371.31;;;14.74;69.24
63190;BME280;49286;44.460;26.114;2022-09-14T00:49:06;100367.28;;;14.54;69.72
63190;BME280;49286;44.460;26.114;2022-09-14T00:51:33;100305.56;;;14.06;69.91
63190;BME280;49286;44.460;26.114;2022-09-14T00:54:02;100315.47;;;14.46;68.67
63190;BME280;49286;44.460;26.114;2022-09-14T00:56:29;100272.97;;;14.08;70.32
63190;BME280;49286;44.460;26.114;2022-09-14T00:58:56;100353.00;;;14.63;71.09
63190;BME280;49286;44.460;26.114;2022-09-14T01:01:25;100373.88;;;14.78;70.52
63190;BME280;49286;44.460;26.114;2022-09-14T01:03:50;100367.41;;;14.45;70.15
63190;BME280;49286;44.460;26.114;2022-09-14T01:06:45;100345.00;;;14.13;70.59
63190;BME280;49286;44.460;26.114;2022-09-14T01:15:13;100257.78;;;13.70;69.78
63190;BME280;49286;44.460;26.114;2022-09-14T01:17:53;100370.19;;;14.34;70.61
63190;BME280;49286;44.460;26.114;2022-09-14T01:20:30;100308.06;;;14.15;70.50
63190;BME280;49286;44.460;26.114;2022-09-14T01:25:54;100363.91;;;14.42;74.27
63190;BME280;49286;44.460;26.114;2022-09-14T01:31:30;100228.78;;;13.68;72.94
63190;BME280;49286;44.460;26.114;2022-09-14T01:34:09;100294.09;;;14.07;73.09
63190;BME280;49286;44.460;26.114;2022-09-14T01:36:39;100223.66;;;13.58;75.25
63190;BME280;49286;44.460;26.114;2022-09-14T01:39:08;100343.22;;;14.15;76.34
63190;BME280;49286;44.460;26.114;2022-09-14T01:41:35;100306.56;;;13.97;76.06
63190;BME280;49286;44.460;26.114;2022-09-14T01:44:20;100236.09;;;13.49;74.66
63190;BME280;49286;44.460;26.114;2022-09-14T01:46:54;100213.50;;;13.33;73.83
63190;BME280;49286;44.460;26.114;2022-09-14T01:49:28;100351.88;;;14.25;72.78
63190;BME280;49286;44.460;26.114;2022-09-14T01:52:11;100319.81;;;13.94;73.47
63190;BME280;49286;44.460;26.114;2022-09-14T01:54:48;100344.06;;;14.19;73.96
63190;BME280;49286;44.460;26.114;2022-09-14T01:57:29;100348.38;;;14.25;73.00
63190;BME280;49286;44.460;26.114;2022-09-14T02:00:03;100346.88;;;14.08;73.33
63190;BME280;49286;44.460;26.114;2022-09-14T02:07:36;100357.28;;;14.16;74.33
63190;BME280;49286;44.460;26.114;2022-09-14T02:10:04;100298.94;;;13.80;74.88
63190;BME280;49286;44.460;26.114;2022-09-14T02:12:31;100213.06;;;12.99;75.67
63190;BME280;49286;44.460;26.114;2022-09-14T02:14:56;100339.72;;;13.55;76.10
63190;BME280;49286;44.460;26.114;2022-09-14T02:17:22;100352.91;;;13.56;76.84
63190;BME280;49286;44.460;26.114;2022-09-14T02:19:56;100332.84;;;13.41;77.07
63190;BME280;49286;44.460;26.114;2022-09-14T02:22:22;100177.00;;;12.34;76.94
63190;BME280;49286;44.460;26.114;2022-09-14T02:24:49;100329.50;;;13.27;77.07
63190;BME280;49286;44.460;26.114;2022-09-14T02:27:15;100229.06;;;12.83;76.96
63190;BME280;49286;44.460;26.114;2022-09-14T02:29:40;100324.22;;;13.27;77.89
63190;BME280;49286;44.460;26.114;2022-09-14T02:43:27;100354.97;;;13.26;78.16
63190;BME280;49286;44.460;26.114;2022-09-14T02:49:28;100351.34;;;13.38;77.93
63190;BME280;49286;44.460;26.114;2022-09-14T02:54:51;100322.63;;;13.15;78.49
63190;BME280;49286;44.460;26.114;2022-09-14T02:57:18;100210.25;;;12.40;78.68
63190;BME280;49286;44.460;26.114;2022-09-14T02:59:44;100340.94;;;13.29;78.51
63190;BME280;49286;44.460;26.114;2022-09-14T03:02:09;100310.41;;;13.08;78.70
63190;BME280;49286;44.460;26.114;2022-09-14T03:04:35;100098.59;;;11.85;78.12
63190;BME280;49286;44.460;26.114;2022-09-14T03:07:00;100174.31;;;12.39;78.96
63190;BME280;49286;44.460;26.114;2022-09-14T03:09:25;100333.94;;;13.23;79.03
63190;BME280;49286;44.460;26.114;2022-09-14T03:11:51;100203.94;;;12.56;78.86
63190;BME280;49286;44.460;26.114;2022-09-14T03:14:16;100345.63;;;12.99;79.84
63190;BME280;49286;44.460;26.114;2022-09-14T03:16:42;100349.00;;;13.14;80.08
63190;BME280;49286;44.460;26.114;2022-09-14T03:19:09;100238.91;;;12.67;78.37
63190;BME280;49286;44.460;26.114;2022-09-14T03:21:37;100318.34;;;13.06;79.23
63190;BME280;49286;44.460;26.114;2022-09-14T03:24:03;100338.34;;;13.21;79.95
63190;BME280;49286;44.460;26.114;2022-09-14T03:26:29;100327.19;;;13.01;79.54
63190;BME280;49286;44.460;26.114;2022-09-14T03:28:58;100365.53;;;13.25;80.33
63190;BME280;49286;44.460;26.114;2022-09-14T03:31:24;100355.88;;;13.28;80.82
63190;BME280;49286;44.460;26.114;2022-09-14T03:33:55;100372.56;;;13.26;81.23
63190;BME280;49286;44.460;26.114;2022-09-14T03:36:21;100269.66;;;12.64;81.17
63190;BME280;49286;44.460;26.114;2022-09-14T03:38:49;100242.59;;;12.53;81.49
63190;BME280;49286;44.460;26.114;2022-09-14T03:41:16;100350.84;;;13.05;81.40
63190;BME280;49286;44.460;26.114;2022-09-14T03:43:42;100389.25;;;13.26;81.37
63190;BME280;49286;44.460;26.114;2022-09-14T03:46:13;100384.84;;;13.27;81.12
63190;BME280;49286;44.460;26.114;2022-09-14T03:48:39;100373.41;;;13.31;80.59
63190;BME280;49286;44.460;26.114;2022-09-14T03:51:06;100270.63;;;12.55;80.80
63190;BME280;49286;44.460;26.114;2022-09-14T03:53:32;100368.41;;;13.05;81.18
63190;BME280;49286;44.460;26.114;2022-09-14T03:55:58;100267.25;;;12.42;80.98
63190;BME280;49286;44.460;26.114;2022-09-14T03:58:24;100259.44;;;12.33;81.00
63190;BME280;49286;44.460;26.114;2022-09-14T04:00:50;100337.81;;;12.93;81.01
63190;BME280;49286;44.460;26.114;2022-09-14T04:03:16;100245.38;;;12.37;80.76
63190;BME280;49286;44.460;26.114;2022-09-14T04:05:42;100369.47;;;12.87;81.63
63190;BME280;49286;44.460;26.114;2022-09-14T04:08:09;100344.78;;;12.96;81.39
63190;BME280;49286;44.460;26.114;2022-09-14T04:10:35;100401.75;;;13.09;81.01
63190;BME280;49286;44.460;26.114;2022-09-14T04:13:02;100292.59;;;12.53;81.35
63190;BME280;49286;44.460;26.114;2022-09-14T04:15:28;100382.41;;;13.10;81.07
63190;BME280;49286;44.460;26.114;2022-09-14T04:17:53;100367.69;;;12.87;80.47
63190;BME280;49286;44.460;26.114;2022-09-14T04:20:19;100380.84;;;12.91;81.32
63190;BME280;49286;44.460;26.114;2022-09-14T04:22:45;100380.13;;;12.75;81.10
63190;BME280;49286;44.460;26.114;2022-09-14T04:25:11;100381.81;;;12.80;80.52
63190;BME280;49286;44.460;26.114;2022-09-14T04:27:36;100390.47;;;12.95;80.27
63190;BME280;49286;44.460;26.114;2022-09-14T04:30:03;100325.72;;;12.74;79.76
63190;BME280;49286;44.460;26.114;2022-09-14T04:32:30;100384.16;;;13.09;79.60
63190;BME280;49286;44.460;26.114;2022-09-14T04:34:57;100395.53;;;13.15;80.13
63190;BME280;49286;44.460;26.114;2022-09-14T04:37:24;100250.81;;;12.20;81.13
63190;BME280;49286;44.460;26.114;2022-09-14T04:39:50;100381.47;;;13.14;80.09
63190;BME280;49286;44.460;26.114;2022-09-14T04:42:15;100281.09;;;12.61;80.05
63190;BME280;49286;44.460;26.114;2022-09-14T04:44:41;100255.03;;;12.34;80.06
63190;BME280;49286;44.460;26.114;2022-09-14T04:47:06;100312.88;;;12.38;81.06
63190;BME280;49286;44.460;26.114;2022-09-14T04:49:33;100169.63;;;11.77;81.20
63190;BME280;49286;44.460;26.114;2022-09-14T04:51:58;100395.28;;;13.38;79.51
63190;BME280;49286;44.460;26.114;2022-09-14T04:54:24;100398.00;;;13.32;80.52
63190;BME280;49286;44.460;26.114;2022-09-14T04:56:49;100369.06;;;13.24;79.77
63190;BME280;49286;44.460;26.114;2022-09-14T04:59:15;100390.94;;;13.32;80.24
63190;BME280;49286;44.460;26.114;2022-09-14T05:01:42;100386.41;;;13.45;80.65
63190;BME280;49286;44.460;26.114;2022-09-14T05:04:10;100402.22;;;13.46;80.65
63190;BME280;49286;44.460;26.114;2022-09-14T05:06:40;100407.22;;;13.68;78.94
63190;BME280;49286;44.460;26.114;2022-09-14T05:09:11;100369.00;;;13.32;79.90
63190;BME280;49286;44.460;26.114;2022-09-14T05:11:44;100389.81;;;13.55;80.06
63190;BME280;49286;44.460;26.114;2022-09-14T05:14:12;100258.63;;;13.05;78.99
63190;BME280;49286;44.460;26.114;2022-09-14T05:16:39;100247.34;;;12.94;79.12
63190;BME280;49286;44.460;26.114;2022-09-14T05:19:07;100261.22;;;13.08;78.59
63190;BME280;49286;44.460;26.114;2022-09-14T05:21:35;100398.03;;;14.59;76.65
63190;BME280;49286;44.460;26.114;2022-09-14T05:24:17;100377.56;;;15.18;73.38
63190;BME280;49286;44.460;26.114;2022-09-14T05:26:43;100358.00;;;16.45;68.10
63190;BME280;49286;44.460;26.114;2022-09-14T05:29:16;100380.69;;;17.24;66.23
63190;BME280;49286;44.460;26.114;2022-09-14T05:31:43;100265.09;;;16.85;63.87
63190;BME280;49286;44.460;26.114;2022-09-14T05:34:10;100394.13;;;18.10;62.26
63190;BME280;49286;44.460;26.114;2022-09-14T05:36:37;100288.25;;;17.98;59.79
63190;BME280;49286;44.460;26.114;2022-09-14T05:39:04;100405.16;;;18.79;59.23
63190;BME280;49286;44.460;26.114;2022-09-14T05:41:29;100295.63;;;18.43;58.70
63190;BME280;49286;44.460;26.114;2022-09-14T05:43:55;100370.66;;;19.03;57.42
63190;BME280;49286;44.460;26.114;2022-09-14T05:46:20;100409.06;;;19.44;57.52
63190;BME280;49286;44.460;26.114;2022-09-14T05:48:48;100297.94;;;19.04;55.58
63190;BME280;49286;44.460;26.114;2022-09-14T05:51:19;100258.22;;;18.99;55.16
63190;BME280;49286;44.460;26.114;2022-09-14T05:53:53;100390.16;;;19.99;53.92
63190;BME280;49286;44.460;26.114;2022-09-14T05:56:20;100416.44;;;19.61;55.78
63190;BME280;49286;44.460;26.114;2022-09-14T05:58:46;100301.47;;;18.79;54.51
63190;BME280;49286;44.460;26.114;2022-09-14T06:01:21;100274.16;;;18.49;55.19
63190;BME280;49286;44.460;26.114;2022-09-14T06:03:48;100344.41;;;18.67;57.13
63190;BME280;49286;44.460;26.114;2022-09-14T06:06:16;100397.03;;;18.84;57.68
63190;BME280;49286;44.460;26.114;2022-09-14T06:08:42;100306.38;;;18.13;57.46
63190;BME280;49286;44.460;26.114;2022-09-14T06:11:13;100414.28;;;18.70;57.16
63190;BME280;49286;44.460;26.114;2022-09-14T06:13:40;100306.69;;;18.02;57.64
63190;BME280;49286;44.460;26.114;2022-09-14T06:16:12;100325.06;;;17.82;58.49
63190;BME280;49286;44.460;26.114;2022-09-14T06:18:38;100440.56;;;18.53;58.93
63190;BME280;49286;44.460;26.114;2022-09-14T06:21:05;100424.44;;;18.03;60.53
63190;BME280;49286;44.460;26.114;2022-09-14T06:23:31;100426.75;;;18.13;58.86
63190;BME280;49286;44.460;26.114;2022-09-14T06:25:59;100438.63;;;18.30;60.93
63190;BME280;49286;44.460;26.114;2022-09-14T06:28:26;100425.84;;;18.14;59.87
63190;BME280;49286;44.460;26.114;2022-09-14T06:30:52;100310.94;;;17.51;60.14
63190;BME280;49286;44.460;26.114;2022-09-14T06:33:18;100307.63;;;17.43;59.61
63190;BME280;49286;44.460;26.114;2022-09-14T06:36:12;100393.38;;;17.75;60.86
63190;BME280;49286;44.460;26.114;2022-09-14T06:38:39;100328.72;;;17.48;63.23
63190;BME280;49286;44.460;26.114;2022-09-14T06:41:07;100308.81;;;17.33;62.57
63190;BME280;49286;44.460;26.114;2022-09-14T06:43:36;100320.06;;;17.12;61.82
63190;BME280;49286;44.460;26.114;2022-09-14T06:46:17;100406.38;;;17.53;62.35
63190;BME280;49286;44.460;26.114;2022-09-14T06:48:52;100289.41;;;17.01;62.15
63190;BME280;49286;44.460;26.114;2022-09-14T06:54:22;100412.91;;;17.41;62.90
63190;BME280;49286;44.460;26.114;2022-09-14T06:56:47;100404.25;;;17.35;62.20
63190;BME280;49286;44.460;26.114;2022-09-14T06:59:14;100379.34;;;17.40;63.24
63190;BME280;49286;44.460;26.114;2022-09-14T07:01:42;100419.34;;;17.95;62.37
63190;BME280;49286;44.460;26.114;2022-09-14T07:04:11;100388.72;;;17.83;61.36
63190;BME280;49286;44.460;26.114;2022-09-14T07:06:46;100413.25;;;17.91;61.21
63190;BME280;49286;44.460;26.114;2022-09-14T07:09:13;100279.97;;;17.22;61.00
63190;BME280;49286;44.460;26.114;2022-09-14T07:11:39;100317.59;;;17.65;61.85
63190;BME280;49286;44.460;26.114;2022-09-14T07:14:05;100399.75;;;18.27;60.69
63190;BME280;49286;44.460;26.114;2022-09-14T07:16:33;100291.97;;;17.34;59.75
63190;BME280;49286;44.460;26.114;2022-09-14T07:19:00;100375.38;;;17.86;60.87
63190;BME280;49286;44.460;26.114;2022-09-14T07:21:33;100279.59;;;17.63;60.50
63190;BME280;49286;44.460;26.114;2022-09-14T07:23:59;100401.03;;;18.42;60.00
63190;BME280;49286;44.460;26.114;2022-09-14T07:26:28;100398.53;;;18.38;59.43
63190;BME280;49286;44.460;26.114;2022-09-14T07:28:58;100398.72;;;18.31;59.43
63190;BME280;49286;44.460;26.114;2022-09-14T07:31:24;100412.75;;;18.63;58.89
63190;BME280;49286;44.460;26.114;2022-09-14T07:33:52;100412.66;;;18.66;59.45
63190;BME280;49286;44.460;26.114;2022-09-14T07:36:20;100304.56;;;18.13;57.65
63190;BME280;49286;44.460;26.114;2022-09-14T07:38:45;100411.88;;;18.89;58.25
63190;BME280;49286;44.460;26.114;2022-09-14T07:41:11;100289.03;;;18.28;58.40
63190;BME280;49286;44.460;26.114;2022-09-14T07:43:37;100410.91;;;18.65;59.33
63190;BME280;49286;44.460;26.114;2022-09-14T07:46:03;100319.50;;;18.18;57.97
63190;BME280;49286;44.460;26.114;2022-09-14T07:48:30;100395.47;;;18.78;57.80
63190;BME280;49286;44.460;26.114;2022-09-14T07:51:05;100336.13;;;18.49;57.96
63190;BME280;49286;44.460;26.114;2022-09-14T07:53:34;100294.59;;;18.47;57.78
63190;BME280;49286;44.460;26.114;2022-09-14T07:56:00;100414.28;;;19.22;57.48
63190;BME280;49286;44.460;26.114;2022-09-14T07:58:27;100406.06;;;19.30;56.89
63190;BME280;49286;44.460;26.114;2022-09-14T08:01:01;100399.97;;;19.26;57.27
63190;BME280;49286;44.460;26.114;2022-09-14T08:03:28;100364.78;;;19.18;56.64
63190;BME280;49286;44.460;26.114;2022-09-14T08:06:01;100386.03;;;19.43;57.11
63190;BME280;49286;44.460;26.114;2022-09-14T08:08:30;100385.34;;;19.61;56.66
63190;BME280;49286;44.460;26.114;2022-09-14T08:11:05;100257.78;;;18.86;54.94
63190;BME280;49286;44.460;26.114;2022-09-14T08:13:34;100366.88;;;19.57;55.81
63190;BME280;49286;44.460;26.114;2022-09-14T08:16:00;100339.88;;;19.44;55.63
63190;BME280;49286;44.460;26.114;2022-09-14T08:18:27;100374.78;;;19.84;55.85
63190;BME280;49286;44.460;26.114;2022-09-14T08:20:53;100242.34;;;19.19;55.06
63190;BME280;49286;44.460;26.114;2022-09-14T08:23:18;100256.00;;;19.10;54.89
63190;BME280;49286;44.460;26.114;2022-09-14T08:25:43;100273.69;;;19.35;55.00
63190;BME280;49286;44.460;26.114;2022-09-14T08:28:09;100279.06;;;19.33;53.96
63190;BME280;49286;44.460;26.114;2022-09-14T08:30:35;100351.81;;;19.81;54.22
63190;BME280;49286;44.460;26.114;2022-09-14T08:33:00;100367.66;;;20.06;54.98
63190;BME280;49286;44.460;26.114;2022-09-14T08:35:25;100375.09;;;19.98;52.74
63190;BME280;49286;44.460;26.114;2022-09-14T08:37:51;100259.59;;;19.33;53.31
63190;BME280;49286;44.460;26.114;2022-09-14T08:40:18;100372.53;;;20.18;53.62
63190;BME280;49286;44.460;26.114;2022-09-14T08:42:44;100261.31;;;19.57;52.82
63190;BME280;49286;44.460;26.114;2022-09-14T08:45:14;100362.28;;;19.86;52.71
63190;BME280;49286;44.460;26.114;2022-09-14T08:47:41;100366.56;;;20.12;53.25
63190;BME280;49286;44.460;26.114;2022-09-14T08:50:16;100327.53;;;19.89;52.71
63190;BME280;49286;44.460;26.114;2022-09-14T08:52:45;100349.56;;;20.36;52.72
63190;BME280;49286;44.460;26.114;2022-09-14T08:55:34;100348.84;;;20.53;54.00
63190;BME280;49286;44.460;26.114;2022-09-14T08:58:26;100349.47;;;20.39;54.17
63190;BME280;49286;44.460;26.114;2022-09-14T09:01:08;100362.41;;;20.49;53.70
63190;BME280;49286;44.460;26.114;2022-09-14T09:03:59;100249.53;;;20.07;53.57
63190;BME280;49286;44.460;26.114;2022-09-14T09:11:49;100339.09;;;20.74;51.05
63190;BME280;49286;44.460;26.114;2022-09-14T09:14:20;100350.97;;;20.87;52.45
63190;BME280;49286;44.460;26.114;2022-09-14T09:16:50;100337.84;;;20.83;51.65
63190;BME280;49286;44.460;26.114;2022-09-14T09:19:27;100250.34;;;20.30;51.44
63190;BME280;49286;44.460;26.114;2022-09-14T09:21:53;100346.88;;;21.20;50.33
63190;BME280;49286;44.460;26.114;2022-09-14T09:24:40;100337.81;;;21.24;50.13
63190;BME280;49286;44.460;26.114;2022-09-14T09:27:09;100262.66;;;20.75;50.18
63190;BME280;49286;44.460;26.114;2022-09-14T09:29:35;100289.47;;;20.91;49.79
63190;BME280;49286;44.460;26.114;2022-09-14T09:32:03;100339.75;;;21.41;51.26
63190;BME280;49286;44.460;26.114;2022-09-14T09:34:30;100282.59;;;21.05;48.67
63190;BME280;49286;44.460;26.114;2022-09-14T09:37:17;100248.41;;;20.95;49.05
63190;BME280;49286;44.460;26.114;2022-09-14T09:39:43;100361.84;;;21.63;49.25
63190;BME280;49286;44.460;26.114;2022-09-14T09:42:23;100341.91;;;21.52;50.14
63190;BME280;49286;44.460;26.114;2022-09-14T09:44:53;100375.41;;;21.78;48.70
63190;BME280;49286;44.460;26.114;2022-09-14T09:50:05;100245.94;;;20.90;50.27
63190;BME280;49286;44.460;26.114;2022-09-14T09:52:58;100332.16;;;21.50;50.21
63190;BME280;49286;44.460;26.114;2022-09-14T09:55:38;100227.06;;;21.33;48.65
63190;BME280;49286;44.460;26.114;2022-09-14T09:58:40;100353.44;;;22.09;49.39
63190;BME280;49286;44.460;26.114;2022-09-14T10:01:18;100210.78;;;21.20;47.59
63190;BME280;49286;44.460;26.114;2022-09-14T10:04:00;100338.84;;;21.97;48.46
63190;BME280;49286;44.460;26.114;2022-09-14T10:06:26;100330.75;;;22.18;46.56
63190;BME280;49286;44.460;26.114;2022-09-14T10:08:54;100303.25;;;21.97;46.96
63190;BME280;49286;44.460;26.114;2022-09-14T10:11:35;100197.41;;;21.40;46.36
63190;BME280;49286;44.460;26.114;2022-09-14T10:14:03;100309.59;;;22.13;46.56
63190;BME280;49286;44.460;26.114;2022-09-14T10:16:36;100206.97;;;21.63;45.99
63190;BME280;49286;44.460;26.114;2022-09-14T10:19:02;100326.78;;;22.44;47.87
63190;BME280;49286;44.460;26.114;2022-09-14T10:21:28;100251.03;;;22.26;44.70
63190;BME280;49286;44.460;26.114;2022-09-14T10:24:21;100324.81;;;22.82;44.14
63190;BME280;49286;44.460;26.114;2022-09-14T10:26:47;100196.97;;;22.21;45.04
63190;BME280;49286;44.460;26.114;2022-09-14T10:29:40;100317.66;;;23.00;43.33
63190;BME280;49286;44.460;26.114;2022-09-14T10:32:16;100192.22;;;22.76;45.58
63190;BME280;49286;44.460;26.114;2022-09-14T10:34:44;100318.66;;;23.96;43.18
63190;BME280;49286;44.460;26.114;2022-09-14T10:42:52;100308.66;;;24.30;40.01
63190;BME280;49286;44.460;26.114;2022-09-14T10:45:40;100304.91;;;24.78;40.67
63190;BME280;49286;44.460;26.114;2022-09-14T10:48:44;100276.56;;;25.03;40.37
63190;BME280;49286;44.460;26.114;2022-09-14T10:51:42;100307.88;;;25.17;39.07
63190;BME280;49286;44.460;26.114;2022-09-14T11:00:31;100288.50;;;24.97;37.74
63190;BME280;49286;44.460;26.114;2022-09-14T11:09:02;100281.25;;;25.28;39.63
63190;BME280;49286;44.460;26.114;2022-09-14T11:12:04;100255.53;;;24.95;38.41
63190;BME280;49286;44.460;26.114;2022-09-14T11:14:57;100162.66;;;24.64;37.13
63190;BME280;49286;44.460;26.114;2022-09-14T11:17:37;100252.00;;;24.95;37.06
63190;BME280;49286;44.460;26.114;2022-09-14T11:22:49;100226.56;;;25.00;36.02
63190;BME280;49286;44.460;26.114;2022-09-14T11:25:46;100246.31;;;25.14;37.32
63190;BME280;49286;44.460;26.114;2022-09-14T11:28:20;100155.25;;;24.68;37.39
63190;BME280;49286;44.460;26.114;2022-09-14T11:30:52;100189.59;;;24.91;37.38
63190;BME280;49286;44.460;26.114;2022-09-14T11:33:25;100235.41;;;25.31;36.90
63190;BME280;49286;44.460;26.114;2022-09-14T11:35:57;100219.00;;;25.36;35.57
63190;BME280;49286;44.460;26.114;2022-09-14T11:38:33;100208.81;;;25.12;36.00
63190;BME280;49286;44.460;26.114;2022-09-14T11:41:19;100227.91;;;25.36;35.64
63190;BME280;49286;44.460;26.114;2022-09-14T11:43:56;100121.94;;;24.57;35.83
63190;BME280;49286;44.460;26.114;2022-09-14T11:46:29;100236.56;;;25.27;36.30
63190;BME280;49286;44.460;26.114;2022-09-14T11:51:25;100116.47;;;24.73;36.69
63190;BME280;49286;44.460;26.114;2022-09-14T11:53:54;100214.97;;;25.28;37.03
63190;BME280;49286;44.460;26.114;2022-09-14T11:56:26;100222.06;;;25.30;36.33
63190;BME280;49286;44.460;26.114;2022-09-14T11:59:03;100160.50;;;24.98;36.73
63190;BME280;49286;44.460;26.114;2022-09-14T12:01:36;100090.00;;;24.38;36.49
63190;BME280;49286;44.460;26.114;2022-09-14T12:04:15;100195.59;;;25.09;35.80
63190;BME280;49286;44.460;26.114;2022-09-14T12:06:53;100225.69;;;25.43;35.84
63190;BME280;49286;44.460;26.114;2022-09-14T12:11:56;100233.38;;;25.35;34.12
63190;BME280;49286;44.460;26.114;2022-09-14T12:19:36;100186.78;;;25.07;35.30
63190;BME280;49286;44.460;26.114;2022-09-14T12:22:33;100205.78;;;25.18;35.11
63190;BME280;49286;44.460;26.114;2022-09-14T12:25:02;100177.31;;;25.01;35.22
63190;BME280;49286;44.460;26.114;2022-09-14T12:27:31;100215.06;;;25.27;35.45
63190;BME280;49286;44.460;26.114;2022-09-14T12:29:59;100174.69;;;25.00;34.80
63190;BME280;49286;44.460;26.114;2022-09-14T12:32:38;100197.03;;;25.15;34.80
63190;BME280;49286;44.460;26.114;2022-09-14T12:35:35;100083.13;;;24.49;35.46
63190;BME280;49286;44.460;26.114;2022-09-14T12:40:58;100190.53;;;25.19;35.18
63190;BME280;49286;44.460;26.114;2022-09-14T13:05:17;100190.34;;;25.22;34.34
63190;BME280;49286;44.460;26.114;2022-09-14T13:07:50;100194.56;;;24.97;34.34
63190;BME280;49286;44.460;26.114;2022-09-14T13:13:00;100155.09;;;25.12;33.86
63190;BME280;49286;44.460;26.114;2022-09-14T13:15:35;100057.34;;;24.75;33.12
63190;BME280;49286;44.460;26.114;2022-09-14T13:18:31;100165.75;;;25.28;34.52
63190;BME280;49286;44.460;26.114;2022-09-14T13:21:17;100180.22;;;25.40;34.29
63190;BME280;49286;44.460;26.114;2022-09-14T13:23:43;100149.28;;;25.20;34.67
63190;BME280;49286;44.460;26.114;2022-09-14T13:28:46;100128.16;;;25.14;33.47
63190;BME280;49286;44.460;26.114;2022-09-14T13:31:16;100181.59;;;25.60;32.53
63190;BME280;49286;44.460;26.114;2022-09-14T13:33:50;100041.25;;;24.60;32.77
63190;BME280;49286;44.460;26.114;2022-09-14T13:36:20;100119.25;;;25.13;33.88
63190;BME280;49286;44.460;26.114;2022-09-14T13:38:47;100069.09;;;24.87;33.23
63190;BME280;49286;44.460;26.114;2022-09-14T13:41:15;100165.53;;;25.45;34.12
63190;BME280;49286;44.460;26.114;2022-09-14T13:43:42;100080.47;;;24.90;33.03
63190;BME280;49286;44.460;26.114;2022-09-14T13:46:09;100167.69;;;25.26;32.57
63190;BME280;49286;44.460;26.114;2022-09-14T13:48:40;100068.47;;;24.69;32.67
63190;BME280;49286;44.460;26.114;2022-09-14T13:51:08;100139.41;;;25.20;32.30
63190;BME280;49286;44.460;26.114;2022-09-14T13:53:49;100125.69;;;25.25;32.04
63190;BME280;49286;44.460;26.114;2022-09-14T13:58:49;100133.81;;;25.23;32.94
63190;BME280;49286;44.460;26.114;2022-09-14T14:01:26;100058.97;;;24.77;32.54
63190;BME280;49286;44.460;26.114;2022-09-14T14:03:53;100156.69;;;25.43;32.35
63190;BME280;49286;44.460;26.114;2022-09-14T14:08:57;100182.19;;;25.51;32.65
63190;BME280;49286;44.460;26.114;2022-09-14T14:11:38;100180.13;;;25.41;32.22
63190;BME280;49286;44.460;26.114;2022-09-14T14:14:25;100076.72;;;24.93;32.81
63190;BME280;49286;44.460;26.114;2022-09-14T14:19:37;100177.97;;;25.46;32.12
63190;BME280;49286;44.460;26.114;2022-09-14T14:24:40;100042.47;;;24.69;31.82
63190;BME280;49286;44.460;26.114;2022-09-14T14:27:24;100082.34;;;25.02;32.17
63190;BME280;49286;44.460;26.114;2022-09-14T14:29:51;100154.00;;;25.43;33.29
63190;BME280;49286;44.460;26.114;2022-09-14T14:32:17;100167.97;;;25.36;32.26
63190;BME280;49286;44.460;26.114;2022-09-14T14:34:42;100135.66;;;25.23;32.57
63190;BME280;49286;44.460;26.114;2022-09-14T14:37:08;100168.00;;;25.48;33.11
63190;BME280;49286;44.460;26.114;2022-09-14T14:39:33;100166.53;;;25.57;31.47
63190;BME280;49286;44.460;26.114;2022-09-14T14:42:00;100096.44;;;25.20;31.85
63190;BME280;49286;44.460;26.114;2022-09-14T14:44:27;100098.34;;;25.18;32.11
63190;BME280;49286;44.460;26.114;2022-09-14T14:46:54;100029.00;;;24.83;31.56
63190;BME280;49286;44.460;26.114;2022-09-14T14:49:20;100049.88;;;24.93;32.26
63190;BME280;49286;44.460;26.114;2022-09-14T14:51:46;100115.84;;;25.38;31.42
63190;BME280;49286;44.460;26.114;2022-09-14T14:54:12;100050.44;;;24.98;31.89
63190;BME280;49286;44.460;26.114;2022-09-14T14:56:45;100109.34;;;25.28;32.13
63190;BME280;49286;44.460;26.114;2022-09-14T15:01:50;100023.78;;;24.82;31.83